Time;durP1;ratioP1;P1;durP2;ratioP2;P2;SDS_P1;SDS_P2;PMS_P1;PMS_P2;Temp;Humidity;BMP_temperature;BMP_pressure;BME280_temperature;BME280_humidity;BME280_pressure;Samples;Min_cycle;Max_cycle;Signal;HPM_P1;HPM_P2
2023/08/16 00:00:42;;;;;;;2.83;1.67;;;;;;;24.71;57.25;99824.06;4445036;32;33405;-84
2023/08/16 00:03:14;;;;;;;3.22;1.60;;;;;;;24.62;57.58;99825.56;4440863;32;33840;-84
2023/08/16 00:05:44;;;;;;;5.47;1.40;;;;;;;24.66;57.39;99829.69;4442350;32;33522;-83
2023/08/16 00:08:13;;;;;;;2.45;1.52;;;;;;;24.57;57.79;99818.87;4438392;32;33217;-84
2023/08/16 00:10:42;;;;;;;2.28;1.45;;;;;;;24.54;57.84;99825.22;4441951;32;34614;-84
2023/08/16 00:13:11;;;;;;;3.45;1.70;;;;;;;24.73;57.33;99824.81;4447393;32;33579;-84
2023/08/16 00:15:40;;;;;;;2.50;1.33;;;;;;;24.53;57.63;99817.41;4444194;32;33431;-84
2023/08/16 00:18:08;;;;;;;1.98;1.27;;;;;;;24.55;57.46;99823.44;4442728;32;33599;-84
2023/08/16 00:20:37;;;;;;;2.42;1.65;;;;;;;24.50;57.65;99821.13;4444025;32;33907;-84
2023/08/16 00:23:07;;;;;;;2.62;1.40;;;;;;;24.53;57.37;99820.06;4450015;32;33574;-84
2023/08/16 00:25:36;;;;;;;2.20;1.30;;;;;;;24.68;56.92;99821.62;4438303;32;35739;-84
2023/08/16 00:28:05;;;;;;;2.50;1.40;;;;;;;24.48;57.56;99815.06;4440545;32;33525;-84
2023/08/16 00:30:34;;;;;;;2.08;1.30;;;;;;;24.53;57.36;99817.41;4443296;32;34503;-84
2023/08/16 00:33:03;;;;;;;3.47;1.52;;;;;;;24.51;57.31;99817.50;4451457;32;34105;-84
2023/08/16 00:35:32;;;;;;;2.50;1.30;;;;;;;24.39;57.70;99821.81;4450382;32;33741;-85
2023/08/16 00:38:01;;;;;;;2.28;1.40;;;;;;;24.32;57.97;99817.03;4445116;32;32781;-85
2023/08/16 00:40:31;;;;;;;2.25;1.42;;;;;;;24.35;57.76;99819.47;4444180;32;34733;-84
2023/08/16 00:43:00;;;;;;;2.90;1.70;;;;;;;24.45;57.70;99812.56;4445962;32;33291;-84
2023/08/16 00:45:31;;;;;;;2.90;1.52;;;;;;;24.59;57.37;99809.00;4451940;32;33631;-84
2023/08/16 00:48:00;;;;;;;2.53;1.50;;;;;;;24.39;58.01;99813.00;4433947;32;33168;-84
2023/08/16 00:50:29;;;;;;;3.47;1.55;;;;;;;24.42;57.88;99807.50;4446053;32;34497;-84
2023/08/16 00:52:58;;;;;;;2.47;1.58;;;;;;;24.41;57.94;99803.16;4446194;32;34888;-84
2023/08/16 00:55:27;;;;;;;3.00;1.27;;;;;;;24.33;58.19;99798.38;4451368;32;33997;-84
2023/08/16 00:57:58;;;;;;;2.47;1.52;;;;;;;24.48;57.59;99797.34;4445626;32;32360;-84
2023/08/16 01:00:28;;;;;;;2.80;1.55;;;;;;;24.19;58.35;99799.31;4445599;32;33624;-84
2023/08/16 01:02:58;;;;;;;2.35;1.70;;;;;;;24.37;57.81;99799.00;4437322;32;33481;-84
2023/08/16 01:05:27;;;;;;;3.30;1.30;;;;;;;24.35;57.90;99798.25;4436947;32;34114;-85
2023/08/16 01:07:56;;;;;;;3.40;1.62;;;;;;;24.17;58.63;99798.56;4451481;32;33764;-85
2023/08/16 01:10:31;;;;;;;3.22;1.60;;;;;;;24.36;57.56;99790.22;4445682;32;33088;-84
2023/08/16 01:13:08;;;;;;;2.62;1.60;;;;;;;24.31;57.79;99791.47;4445682;32;33182;-84
2023/08/16 01:15:40;;;;;;;3.00;1.45;;;;;;;24.26;58.08;99782.03;4445569;32;34198;-85
2023/08/16 01:18:09;;;;;;;2.22;1.23;;;;;;;24.25;58.08;99785.63;4445765;32;33287;-85
2023/08/16 01:20:40;;;;;;;3.90;1.98;;;;;;;24.27;58.14;99789.03;4451369;32;33481;-84
2023/08/16 01:23:13;;;;;;;1.45;1.10;;;;;;;24.05;58.68;99784.34;4445329;32;33118;-84
2023/08/16 01:25:46;;;;;;;3.15;1.77;;;;;;;24.11;58.47;99783.06;4445577;32;34012;-84
2023/08/16 01:28:18;;;;;;;3.45;1.98;;;;;;;23.95;59.00;99782.44;4447068;32;34378;-84
2023/08/16 01:30:47;;;;;;;2.87;1.60;;;;;;;23.97;58.97;99785.81;4452648;32;33977;-84
2023/08/16 01:33:16;;;;;;;1.73;1.37;;;;;;;24.04;58.92;99789.72;4447170;32;34625;-85
2023/08/16 01:35:46;;;;;;;3.05;1.50;;;;;;;24.08;58.68;99785.09;4437797;32;33818;-84
2023/08/16 01:38:15;;;;;;;3.85;1.73;;;;;;;24.08;58.79;99783.28;4447287;32;34646;-83
2023/08/16 01:40:53;;;;;;;2.28;1.35;;;;;;;24.00;58.99;99785.63;4447067;32;34555;-84
2023/08/16 01:43:24;;;;;;;2.83;1.73;;;;;;;24.00;59.35;99788.25;4452695;32;34062;-84
2023/08/16 01:45:54;;;;;;;2.90;1.30;;;;;;;24.10;58.92;99783.19;4447453;32;33750;-85
2023/08/16 01:48:25;;;;;;;3.08;1.42;;;;;;;24.00;58.96;99782.97;4447183;32;33012;-84
2023/08/16 01:50:54;;;;;;;3.67;1.67;;;;;;;23.97;59.00;99783.16;4447041;32;33507;-84
2023/08/16 01:53:23;;;;;;;4.50;1.87;;;;;;;23.99;59.21;99784.78;4452780;32;34275;-85
2023/08/16 01:55:52;;;;;;;1.95;1.30;;;;;;;23.94;59.25;99781.56;4448738;32;33799;-85
2023/08/16 01:58:20;;;;;;;2.83;1.70;;;;;;;23.91;59.30;99779.13;4449881;32;33308;-85
2023/08/16 02:00:51;;;;;;;2.17;1.58;;;;;;;24.03;58.67;99780.94;4447458;32;33735;-85
2023/08/16 02:03:20;;;;;;;3.80;1.55;;;;;;;23.97;58.99;99786.66;4447053;32;33339;-84
2023/08/16 02:05:49;;;;;;;2.85;1.87;;;;;;;24.01;58.88;99782.00;4452538;32;33512;-84
2023/08/16 02:08:17;;;;;;;3.05;1.60;;;;;;;23.92;59.08;99778.19;4446871;32;33451;-84
2023/08/16 02:10:46;;;;;;;2.90;1.60;;;;;;;23.92;59.29;99775.53;4447468;32;33458;-84
2023/08/16 02:13:16;;;;;;;3.40;1.87;;;;;;;23.93;59.17;99781.69;4447261;32;34256;-85
2023/08/16 02:15:45;;;;;;;3.05;1.75;;;;;;;23.95;58.93;99770.03;4452614;32;34847;-85
2023/08/16 02:18:15;;;;;;;3.42;2.05;;;;;;;24.01;58.88;99774.06;4447140;32;33125;-85
2023/08/16 02:20:44;;;;;;;2.87;1.35;;;;;;;23.94;59.01;99767.47;4447676;32;32988;-84
2023/08/16 02:23:13;;;;;;;2.60;1.52;;;;;;;23.86;59.39;99765.34;4446753;32;34942;-85
2023/08/16 02:25:44;;;;;;;2.42;1.45;;;;;;;23.92;58.97;99764.94;4449486;32;34610;-83
2023/08/16 02:28:13;;;;;;;3.10;1.67;;;;;;;23.84;59.21;99760.13;4452676;32;33486;-84
2023/08/16 02:30:44;;;;;;;3.70;1.83;;;;;;;23.83;59.21;99758.44;4446789;32;34353;-84
2023/08/16 02:33:13;;;;;;;4.70;1.80;;;;;;;23.94;58.66;99762.16;4446719;32;33719;-85
2023/08/16 02:35:43;;;;;;;2.65;1.62;;;;;;;23.72;59.12;99762.72;4447197;32;34620;-85
2023/08/16 02:38:12;;;;;;;5.57;2.42;;;;;;;23.77;59.20;99763.28;4452593;32;32671;-85
2023/08/16 02:40:41;;;;;;;3.65;1.83;;;;;;;23.83;58.85;99752.31;4446485;32;35106;-85
2023/08/16 02:43:11;;;;;;;2.58;1.70;;;;;;;23.74;59.30;99752.91;4446334;32;32733;-85
2023/08/16 02:45:40;;;;;;;2.35;1.62;;;;;;;23.66;59.42;99756.06;4431842;32;33476;-85
2023/08/16 02:48:09;;;;;;;3.30;1.85;;;;;;;23.37;60.74;99765.91;4444468;32;33765;-85
2023/08/16 02:50:38;;;;;;;2.58;1.60;;;;;;;23.37;60.97;99764.09;4452515;32;33689;-85
2023/08/16 02:53:09;;;;;;;4.30;1.80;;;;;;;23.28;61.19;99767.34;4443321;32;34632;-85
2023/08/16 02:55:37;;;;;;;3.35;1.80;;;;;;;23.47;60.43;99766.16;4444783;32;33287;-85
2023/08/16 02:58:06;;;;;;;2.90;1.67;;;;;;;23.60;59.80;99765.22;4445719;32;32942;-85
2023/08/16 03:00:37;;;;;;;2.53;1.75;;;;;;;23.49;60.04;99758.97;4452368;32;33032;-84
2023/08/16 03:03:06;;;;;;;2.72;1.58;;;;;;;23.61;59.85;99763.44;4443010;32;33830;-85
2023/08/16 03:05:35;;;;;;;2.42;1.58;;;;;;;23.75;59.25;99763.41;4446523;32;33723;-85
2023/08/16 03:08:04;;;;;;;2.97;1.70;;;;;;;23.59;59.49;99766.19;4446929;32;33255;-85
2023/08/16 03:10:34;;;;;;;2.70;1.60;;;;;;;23.41;60.47;99781.50;4451965;32;33615;-84
2023/08/16 03:13:08;;;;;;;3.25;1.77;;;;;;;23.58;60.20;99774.22;4450894;32;33750;-85
2023/08/16 03:15:37;;;;;;;2.47;1.85;;;;;;;23.72;59.75;99774.16;4446059;32;34175;-85
2023/08/16 03:18:06;;;;;;;2.25;1.50;;;;;;;23.80;59.39;99778.97;4446786;32;33239;-85
2023/08/16 03:20:35;;;;;;;1.77;1.20;;;;;;;23.69;59.55;99774.38;4446694;32;34632;-85
2023/08/16 03:23:04;;;;;;;5.72;1.83;;;;;;;23.66;59.74;99777.22;4452453;32;33331;-85
2023/08/16 03:25:34;;;;;;;2.40;1.48;;;;;;;23.63;60.05;99785.34;4446377;32;34676;-85
2023/08/16 03:28:03;;;;;;;1.97;1.30;;;;;;;23.59;60.14;99786.53;4446703;32;32585;-84
2023/08/16 03:30:33;;;;;;;3.22;1.80;;;;;;;23.66;60.10;99782.53;4446564;32;33950;-85
2023/08/16 03:33:03;;;;;;;2.75;1.50;;;;;;;23.57;60.42;99785.78;4452051;32;33732;-85
2023/08/16 03:35:32;;;;;;;2.55;1.40;;;;;;;23.52;60.79;99782.59;4446361;32;34335;-85
2023/08/16 03:38:01;;;;;;;3.10;1.90;;;;;;;23.70;60.72;99788.47;4446387;32;33833;-85
2023/08/16 03:40:29;;;;;;;2.70;1.70;;;;;;;23.47;61.63;99796.13;4446312;32;33058;-85
2023/08/16 03:42:59;;;;;;;3.72;1.85;;;;;;;23.55;61.19;99798.28;4446638;32;33597;-85
2023/08/16 03:45:28;;;;;;;2.22;1.50;;;;;;;23.56;60.81;99799.97;4452110;32;32978;-85
2023/08/16 03:47:58;;;;;;;2.90;2.03;;;;;;;23.64;60.44;99800.31;4446351;32;34223;-85
2023/08/16 03:50:27;;;;;;;2.97;1.80;;;;;;;23.60;60.55;99801.47;4446354;32;33712;-85
2023/08/16 03:52:55;;;;;;;2.75;1.52;;;;;;;23.44;61.35;99801.63;4445801;32;33689;-86
2023/08/16 03:55:24;;;;;;;3.42;1.77;;;;;;;23.41;61.45;99801.81;4451526;32;34051;-85
2023/08/16 03:57:56;;;;;;;2.72;1.77;;;;;;;23.40;61.40;99795.66;4445401;32;33351;-85
2023/08/16 04:00:27;;;;;;;3.97;1.85;;;;;;;23.36;61.79;99793.31;4443846;32;33946;-85
2023/08/16 04:02:58;;;;;;;1.77;1.35;;;;;;;23.41;61.67;99792.09;4446269;32;34079;-85
2023/08/16 04:05:27;;;;;;;3.25;1.75;;;;;;;23.39;61.58;99790.50;4445440;32;33467;-85
2023/08/16 04:07:56;;;;;;;3.45;2.00;;;;;;;23.40;61.71;99789.53;4452039;32;33401;-85
2023/08/16 04:10:25;;;;;;;2.10;1.62;;;;;;;23.45;61.90;99797.19;4446228;32;34555;-85
2023/08/16 04:12:55;;;;;;;4.95;1.83;;;;;;;23.40;62.25;99798.31;4447207;32;33886;-85
2023/08/16 04:15:25;;;;;;;4.20;2.28;;;;;;;23.51;61.84;99810.00;4446578;32;34172;-85
2023/08/16 04:17:55;;;;;;;2.87;1.58;;;;;;;23.53;61.68;99816.06;4452010;32;32524;-85
2023/08/16 04:20:24;;;;;;;2.87;1.90;;;;;;;23.54;61.97;99812.47;4446101;32;33450;-85
2023/08/16 04:22:54;;;;;;;3.25;1.45;;;;;;;23.62;62.08;99815.47;4446127;32;32598;-85
2023/08/16 04:25:23;;;;;;;3.60;1.80;;;;;;;23.65;62.06;99820.53;4446357;32;33230;-85
2023/08/16 04:27:52;;;;;;;4.07;1.75;;;;;;;23.63;62.42;99817.16;4446271;32;32784;-85
2023/08/16 04:30:22;;;;;;;3.85;2.15;;;;;;;23.71;62.53;99820.16;4451967;32;33970;-85
2023/08/16 04:32:52;;;;;;;4.28;1.98;;;;;;;23.90;62.08;99809.22;4446342;32;34451;-85
2023/08/16 04:35:21;;;;;;;4.00;1.98;;;;;;;23.78;62.79;99812.69;4446033;32;33230;-85
2023/08/16 04:37:51;;;;;;;4.53;1.92;;;;;;;24.06;61.69;99809.03;4449166;32;34002;-85
2023/08/16 04:40:20;;;;;;;4.30;2.15;;;;;;;24.01;62.24;99813.78;4451327;32;33252;-84
2023/08/16 04:42:49;;;;;;;2.65;1.90;;;;;;;24.00;63.07;99817.41;4446200;32;34054;-85
2023/08/16 04:45:22;;;;;;;3.15;2.00;;;;;;;24.02;63.02;99816.34;4445571;32;33844;-85
2023/08/16 04:47:52;;;;;;;3.08;1.55;;;;;;;24.09;62.27;99824.75;4446634;32;33553;-85
2023/08/16 04:50:22;;;;;;;3.35;1.67;;;;;;;24.01;62.63;99821.75;4446455;32;32759;-85
2023/08/16 04:52:51;;;;;;;2.33;1.73;;;;;;;23.93;62.32;99824.06;4451819;32;34429;-85
2023/08/16 04:55:20;;;;;;;3.12;1.95;;;;;;;24.21;61.08;99831.00;4445945;32;33104;-85
2023/08/16 04:57:49;;;;;;;2.42;1.65;;;;;;;24.24;60.86;99833.47;4446065;32;32915;-85
2023/08/16 05:00:20;;;;;;;4.28;2.15;;;;;;;24.11;61.67;99827.28;4443835;32;34626;-85
2023/08/16 05:02:52;;;;;;;2.90;1.77;;;;;;;24.26;61.32;99811.19;4449491;32;35461;-84
2023/08/16 05:05:21;;;;;;;2.85;1.58;;;;;;;24.41;60.99;99811.09;4443616;32;33728;-85
2023/08/16 05:07:50;;;;;;;3.33;1.65;;;;;;;24.45;60.77;99804.63;4446959;32;33845;-85
2023/08/16 05:10:19;;;;;;;3.30;2.00;;;;;;;24.55;60.68;99810.16;4442931;32;34168;-85
2023/08/16 05:12:48;;;;;;;2.10;1.60;;;;;;;24.72;60.77;99809.00;4448936;32;33702;-86
2023/08/16 05:15:17;;;;;;;3.42;1.95;;;;;;;25.07;59.31;99822.44;4450911;32;34345;-85
2023/08/16 05:17:46;;;;;;;2.28;1.92;;;;;;;25.12;59.81;99813.16;4445834;32;33889;-85
2023/08/16 05:20:16;;;;;;;3.08;1.77;;;;;;;25.46;58.67;99813.41;4445662;32;33504;-85
2023/08/16 05:22:45;;;;;;;2.97;1.50;;;;;;;26.05;57.27;99815.28;4443549;32;33836;-85
2023/08/16 05:25:14;;;;;;;4.68;2.53;;;;;;;26.28;55.05;99820.66;4450109;32;33695;-85
2023/08/16 05:27:43;;;;;;;4.50;1.83;;;;;;;26.80;52.61;99821.97;4445694;32;33061;-85
2023/08/16 05:30:12;;;;;;;4.97;1.95;;;;;;;26.85;52.31;99819.78;4444868;32;33805;-84
2023/08/16 05:32:41;;;;;;;2.47;1.60;;;;;;;26.89;52.16;99815.91;4445265;32;34568;-85
2023/08/16 05:35:13;;;;;;;3.22;1.75;;;;;;;27.00;52.58;99815.06;4450501;32;33679;-85
2023/08/16 05:37:43;;;;;;;2.22;1.30;;;;;;;27.35;51.30;99817.59;4446605;32;33973;-85
2023/08/16 05:40:13;;;;;;;2.63;1.63;;;;;;;27.03;52.13;99825.47;4445381;32;33637;-86
2023/08/16 05:42:42;;;;;;;2.55;1.52;;;;;;;26.68;53.16;99829.09;4445305;32;33087;-85
2023/08/16 05:45:11;;;;;;;3.90;2.00;;;;;;;26.37;53.91;99833.25;4445151;32;33787;-86
2023/08/16 05:47:39;;;;;;;3.20;1.90;;;;;;;26.22;54.58;99832.63;4450520;32;34039;-85
2023/08/16 05:50:09;;;;;;;2.25;1.55;;;;;;;26.09;55.38;99829.19;4445368;32;33198;-85
2023/08/16 05:52:38;;;;;;;3.20;2.12;;;;;;;26.28;55.10;99840.13;4445059;32;34472;-86
2023/08/16 05:55:09;;;;;;;3.55;1.83;;;;;;;26.24;54.94;99838.69;4445045;32;34339;-85
2023/08/16 05:57:38;;;;;;;2.85;1.55;;;;;;;26.20;55.39;99834.53;4450998;32;34275;-85
2023/08/16 06:00:08;;;;;;;3.78;2.10;;;;;;;26.23;55.95;99834.31;4445161;32;33409;-85
2023/08/16 06:02:39;;;;;;;3.28;2.03;;;;;;;26.33;56.30;99840.59;4445175;32;34412;-85
2023/08/16 06:05:09;;;;;;;8.05;1.92;;;;;;;26.50;55.50;99843.78;4448916;32;33522;-85
2023/08/16 06:07:38;;;;;;;3.90;2.15;;;;;;;26.70;54.93;99842.28;4444787;32;33493;-85
2023/08/16 06:10:09;;;;;;;1.98;1.37;;;;;;;26.52;55.55;99833.87;4449873;32;33901;-85
2023/08/16 06:12:37;;;;;;;;;;;;;;;26.75;54.31;99832.13;4444612;32;34468;-85
2023/08/16 06:15:11;;;;;;;5.30;2.58;;;;;;;26.59;55.21;99835.97;4444281;32;33600;-85
2023/08/16 06:17:40;;;;;;;3.83;1.98;;;;;;;27.04;54.47;99845.81;4444722;32;33076;-85
2023/08/16 06:20:11;;;;;;;3.85;2.47;;;;;;;26.89;55.44;99841.69;4451488;32;33498;-85
2023/08/16 06:22:40;;;;;;;2.92;1.67;;;;;;;27.13;55.01;99838.88;4446251;32;34038;-85
2023/08/16 06:25:11;;;;;;;3.42;1.73;;;;;;;26.76;55.65;99828.50;4444278;32;34186;-85
2023/08/16 06:27:40;;;;;;;3.08;1.73;;;;;;;26.96;54.58;99840.22;4446073;32;33891;-85
2023/08/16 06:30:10;;;;;;;3.55;2.10;;;;;;;26.76;55.28;99847.13;4447195;32;34509;-85
2023/08/16 06:32:39;;;;;;;3.35;1.92;;;;;;;26.98;55.37;99852.44;4453480;32;33131;-85
2023/08/16 06:35:09;;;;;;;4.00;2.17;;;;;;;26.94;55.39;99845.69;4445674;32;34249;-85
2023/08/16 06:37:39;;;;;;;2.42;1.50;;;;;;;26.94;55.76;99851.00;4446210;32;33781;-85
2023/08/16 06:40:09;;;;;;;4.27;1.90;;;;;;;27.05;55.43;99841.31;4446683;32;33378;-84
2023/08/16 06:42:40;;;;;;;3.05;1.87;;;;;;;26.97;55.71;99842.78;4442551;32;34478;-85
2023/08/16 06:45:10;;;;;;;3.05;2.05;;;;;;;27.20;55.15;99840.97;4446054;32;33454;-85
2023/08/16 06:47:39;;;;;;;3.65;1.83;;;;;;;27.05;55.51;99836.84;4446015;32;32992;-85
2023/08/16 06:50:08;;;;;;;2.78;1.75;;;;;;;27.23;54.55;99838.06;4446713;32;34399;-85
2023/08/16 06:52:37;;;;;;;3.15;1.98;;;;;;;27.11;54.59;99838.16;4446024;32;33670;-85
2023/08/16 06:55:06;;;;;;;3.70;2.17;;;;;;;27.18;54.40;99826.03;4449707;32;34618;-85
2023/08/16 06:57:35;;;;;;;5.05;2.40;;;;;;;26.89;54.40;99820.38;4446933;32;32963;-86
2023/08/16 07:00:08;;;;;;;3.35;2.22;;;;;;;27.28;53.38;99824.38;4446456;32;34474;-85
2023/08/16 07:02:37;;;;;;;3.92;2.30;;;;;;;27.22;53.59;99822.19;4442766;32;34400;-85
2023/08/16 07:05:07;;;;;;;4.07;1.95;;;;;;;27.24;53.64;99826.44;4450168;32;33655;-85
2023/08/16 07:07:40;;;;;;;3.78;2.00;;;;;;;27.14;54.11;99829.94;4446694;32;33094;-85
2023/08/16 07:10:10;;;;;;;2.47;1.83;;;;;;;26.90;54.05;99827.41;4446382;32;33981;-85
2023/08/16 07:12:39;;;;;;;4.07;2.17;;;;;;;27.00;54.05;99828.38;4446407;32;33630;-85
2023/08/16 07:15:11;;;;;;;2.72;1.75;;;;;;;27.14;53.53;99828.13;4446846;32;34031;-85
2023/08/16 07:17:40;;;;;;;3.00;1.77;;;;;;;27.02;54.21;99835.28;4452464;32;33228;-85
2023/08/16 07:20:10;;;;;;;3.87;2.20;;;;;;;27.33;54.06;99839.97;4446730;32;33944;-85
2023/08/16 07:22:39;;;;;;;3.67;2.40;;;;;;;27.04;54.79;99837.81;4446602;32;33882;-85
2023/08/16 07:25:09;;;;;;;3.47;2.15;;;;;;;27.14;54.03;99836.13;4446760;32;34250;-85
2023/08/16 07:27:38;;;;;;;3.47;2.15;;;;;;;27.15;53.93;99843.13;4451150;32;33224;-85
2023/08/16 07:30:09;;;;;;;4.00;1.80;;;;;;;26.93;54.83;99843.13;4446224;32;34047;-84
2023/08/16 07:32:38;;;;;;;3.87;2.00;;;;;;;27.03;54.51;99846.75;4446715;32;34012;-85
2023/08/16 07:35:08;;;;;;;2.67;1.67;;;;;;;26.99;54.47;99855.94;4446726;32;33799;-85
2023/08/16 07:37:37;;;;;;;3.67;2.00;;;;;;;27.26;54.02;99860.12;4431139;32;33457;-85
2023/08/16 07:40:06;;;;;;;4.03;2.40;;;;;;;26.97;54.49;99858.75;4436590;32;33522;-85
2023/08/16 07:42:35;;;;;;;4.25;2.22;;;;;;;27.21;53.60;99858.66;4445248;32;33664;-84
2023/08/16 07:45:05;;;;;;;4.47;2.47;;;;;;;27.20;54.05;99856.94;4446872;32;33614;-85
2023/08/16 07:47:35;;;;;;;3.58;2.08;;;;;;;27.31;53.44;99857.91;4448182;32;33969;-85
2023/08/16 07:50:05;;;;;;;4.15;2.60;;;;;;;27.28;53.83;99858.16;4452313;32;34003;-85
2023/08/16 07:52:34;;;;;;;5.10;3.00;;;;;;;27.31;53.48;99863.25;4446335;32;34055;-85
2023/08/16 07:55:06;;;;;;;3.55;2.08;;;;;;;27.30;53.69;99856.22;4446238;32;33480;-85
2023/08/16 07:57:35;;;;;;;4.93;2.40;;;;;;;27.21;54.20;99857.81;4446347;32;33047;-85
2023/08/16 08:00:06;;;;;;;3.00;1.98;;;;;;;27.42;54.61;99858.75;4446953;32;33450;-85
2023/08/16 08:02:42;;;;;;;4.47;1.90;;;;;;;27.42;54.27;99856.09;4446470;32;34477;-84
2023/08/16 08:05:26;;;;;;;3.72;1.95;;;;;;;27.59;54.01;99861.84;4438839;32;35411;-84
2023/08/16 08:07:55;;;;;;;4.15;2.35;;;;;;;27.52;54.11;99868.62;4442220;32;32047;-85
2023/08/16 08:10:23;;;;;;;6.45;2.20;;;;;;;27.83;53.34;99877.69;4445796;32;33505;-85
2023/08/16 08:12:53;;;;;;;4.18;2.72;;;;;;;27.86;54.70;99880.13;4447319;32;33489;-85
2023/08/16 08:15:21;;;;;;;5.18;2.67;;;;;;;27.92;54.91;99892.94;4451285;32;34245;-85
2023/08/16 08:17:52;;;;;;;4.03;1.92;;;;;;;27.94;54.71;99890.16;4445432;32;33330;-85
2023/08/16 08:20:21;;;;;;;3.75;2.00;;;;;;;28.01;54.57;99894.84;4444703;32;32635;-85
2023/08/16 08:22:49;;;;;;;3.58;2.00;;;;;;;28.14;54.31;99904.47;4446123;32;34378;-85
2023/08/16 08:25:18;;;;;;;3.42;2.00;;;;;;;28.28;54.17;99906.84;4451209;32;33724;-85
2023/08/16 08:27:47;;;;;;;3.42;2.22;;;;;;;28.30;53.44;99899.56;4446516;32;33378;-85
2023/08/16 08:30:16;;;;;;;5.28;2.53;;;;;;;28.21;53.29;99900.34;4446183;32;33653;-85
2023/08/16 08:32:45;;;;;;;3.78;2.22;;;;;;;28.36;53.04;99908.87;4446157;32;33920;-85
2023/08/16 08:35:16;;;;;;;3.87;1.90;;;;;;;28.54;52.33;99904.69;4451440;32;33652;-85
2023/08/16 08:37:45;;;;;;;3.92;2.55;;;;;;;28.58;52.07;99899.91;4445781;32;32492;-86
2023/08/16 08:40:14;;;;;;;3.65;2.05;;;;;;;28.63;52.25;99905.72;4446030;32;34486;-86
2023/08/16 08:42:46;;;;;;;5.20;2.20;;;;;;;28.63;51.74;99903.91;4445754;32;33644;-85
2023/08/16 08:45:15;;;;;;;3.72;2.28;;;;;;;28.60;51.63;99909.50;4445683;32;33600;-85
2023/08/16 08:47:47;;;;;;;4.43;2.58;;;;;;;28.35;52.08;99912.53;4451003;32;33070;-85
2023/08/16 08:50:18;;;;;;;5.50;2.60;;;;;;;28.39;52.70;99914.81;4444465;32;33702;-85
2023/08/16 08:52:51;;;;;;;3.12;1.95;;;;;;;28.54;51.42;99907.34;4440441;32;32670;-85
2023/08/16 08:55:21;;;;;;;4.07;2.05;;;;;;;28.70;52.08;99914.88;4443073;32;33628;-85
2023/08/16 08:57:51;;;;;;;4.03;1.83;;;;;;;28.71;52.65;99914.75;4448030;32;32621;-85
2023/08/16 09:00:21;;;;;;;2.50;1.95;;;;;;;28.84;51.97;99919.06;4448673;32;35426;-85
2023/08/16 09:02:50;;;;;;;3.53;1.83;;;;;;;28.83;52.66;99914.69;4443479;32;33726;-85
2023/08/16 09:05:22;;;;;;;3.30;1.77;;;;;;;28.84;52.97;99911.88;4443473;32;34126;-85
2023/08/16 09:07:52;;;;;;;3.78;2.28;;;;;;;28.93;52.37;99907.59;4444131;32;33421;-85
2023/08/16 09:10:21;;;;;;;3.60;1.98;;;;;;;28.89;51.83;99920.34;4448151;32;32549;-85
2023/08/16 09:12:50;;;;;;;4.03;2.53;;;;;;;28.79;52.25;99916.78;4442215;32;34333;-86
2023/08/16 09:15:18;;;;;;;4.05;2.30;;;;;;;28.73;52.55;99917.31;4443812;32;34159;-85
2023/08/16 09:17:50;;;;;;;4.03;1.90;;;;;;;28.85;51.98;99918.94;4443383;32;33857;-84
2023/08/16 09:20:19;;;;;;;5.10;2.78;;;;;;;29.20;51.04;99925.72;4451153;32;34258;-86
2023/08/16 09:22:50;;;;;;;8.37;2.50;;;;;;;28.72;50.47;99924.44;4444265;32;33161;-85
2023/08/16 09:25:19;;;;;;;3.72;2.40;;;;;;;29.31;50.71;99924.78;4432077;32;33605;-85
2023/08/16 09:27:48;;;;;;;3.95;2.25;;;;;;;29.12;49.37;99921.06;4442253;32;33390;-85
2023/08/16 09:30:17;;;;;;;4.03;2.60;;;;;;;29.55;48.63;99919.97;4442553;32;33497;-84
2023/08/16 09:32:46;;;;;;;5.10;2.35;;;;;;;29.66;48.94;99927.03;4450444;32;34441;-84
2023/08/16 09:35:16;;;;;;;3.83;2.23;;;;;;;29.90;47.26;99923.16;4442765;32;34223;-83
2023/08/16 09:37:45;;;;;;;4.05;2.62;;;;;;;29.88;47.67;99925.09;4434253;32;33123;-85
2023/08/16 09:40:15;;;;;;;4.65;2.50;;;;;;;30.14;46.30;99920.91;4443266;32;33488;-84
2023/08/16 09:42:44;;;;;;;3.47;1.95;;;;;;;30.14;45.34;99914.72;4449786;32;33175;-84
2023/08/16 09:45:13;;;;;;;4.70;2.40;;;;;;;29.90;46.31;99910.59;4435344;32;34241;-85
2023/08/16 09:47:45;;;;;;;4.97;2.35;;;;;;;29.92;46.21;99919.34;4445233;32;33551;-84
2023/08/16 09:50:21;;;;;;;4.15;2.70;;;;;;;30.14;46.80;99920.06;4444605;32;34625;-84
2023/08/16 09:52:50;;;;;;;4.68;2.53;;;;;;;30.22;45.95;99914.00;4430305;32;32416;-84
2023/08/16 09:55:27;;;;;;;3.20;1.95;;;;;;;30.07;46.17;99903.72;4448835;32;33647;-84
2023/08/16 09:57:56;;;;;;;4.82;2.58;;;;;;;30.27;45.51;99903.75;4442195;32;33960;-84
2023/08/16 10:00:27;;;;;;;3.53;1.95;;;;;;;30.39;44.96;99902.59;4441840;32;34272;-84
2023/08/16 10:02:58;;;;;;;4.40;2.87;;;;;;;30.22;44.98;99911.31;4441466;32;33924;-84
2023/08/16 10:05:27;;;;;;;4.07;2.30;;;;;;;29.92;45.53;99911.31;4444529;32;33403;-84
2023/08/16 10:08:14;;;;;;;3.95;2.55;;;;;;;29.86;45.18;99917.22;4445660;32;33295;-84
2023/08/16 10:10:45;;;;;;;3.20;2.10;;;;;;;30.01;47.00;99930.19;4442059;32;34397;-84
2023/08/16 10:13:16;;;;;;;4.85;2.78;;;;;;;30.16;45.83;99923.44;4442704;32;34016;-84
2023/08/16 10:15:48;;;;;;;4.97;2.50;;;;;;;30.20;44.53;99922.16;4443438;32;33462;-84
2023/08/16 10:18:20;;;;;;;4.82;2.30;;;;;;;30.08;44.48;99923.28;4450785;32;31955;-85
2023/08/16 10:20:50;;;;;;;4.57;2.47;;;;;;;30.11;45.15;99915.84;4453146;32;33382;-84
2023/08/16 10:23:20;;;;;;;3.80;1.80;;;;;;;30.34;44.70;99927.13;4447002;32;33816;-84
2023/08/16 10:25:53;;;;;;;4.28;2.30;;;;;;;30.58;45.06;99924.00;4445428;32;33729;-84
2023/08/16 10:28:24;;;;;;;5.57;3.15;;;;;;;30.40;44.00;99928.41;4441666;32;33326;-84
2023/08/16 10:30:53;;;;;;;;;;;;;;;30.66;44.04;99928.62;4437534;32;33659;-84
2023/08/16 10:33:29;;;;;;;3.40;1.85;;;;;;;30.49;44.52;99924.84;4438960;32;33961;-84
2023/08/16 10:35:58;;;;;;;4.97;2.47;;;;;;;30.90;44.08;99925.50;4432456;32;33817;-84
2023/08/16 10:38:35;;;;;;;3.17;1.75;;;;;;;30.94;43.18;99924.25;4439162;32;32885;-83
2023/08/16 10:41:13;;;;;;;4.22;2.35;;;;;;;31.06;43.37;99918.72;4439111;32;33183;-83
2023/08/16 10:43:47;;;;;;;5.10;2.40;;;;;;;31.23;42.95;99921.44;4450445;32;33840;-83
2023/08/16 10:46:28;;;;;;;8.00;3.55;;;;;;;31.27;42.01;99924.69;4445603;32;33437;-84
2023/08/16 10:49:00;;;;;;;3.75;2.00;;;;;;;31.09;41.47;99924.59;4444165;32;33141;-84
2023/08/16 10:51:30;;;;;;;3.62;1.90;;;;;;;31.26;42.45;99918.47;4442031;32;34075;-84
2023/08/16 10:54:00;;;;;;;2.75;1.62;;;;;;;31.10;43.23;99925.44;4440621;32;33745;-83
2023/08/16 10:56:44;;;;;;;2.78;1.87;;;;;;;31.23;41.69;99920.59;4451895;32;34366;-84
2023/08/16 10:59:13;;;;;;;3.37;1.85;;;;;;;31.46;42.45;99924.63;4445870;32;33031;-84
2023/08/16 11:01:46;;;;;;;4.15;2.15;;;;;;;31.44;41.16;99917.72;4445205;32;34309;-84
2023/08/16 11:04:15;;;;;;;5.47;2.55;;;;;;;31.61;41.45;99914.25;4445317;32;34800;-84
2023/08/16 11:06:44;;;;;;;4.45;2.42;;;;;;;31.50;41.07;99914.44;4446504;32;34271;-84
2023/08/16 11:09:30;;;;;;;3.20;1.80;;;;;;;31.42;41.47;99917.03;4446481;32;32898;-84
2023/08/16 11:12:03;;;;;;;3.87;2.12;;;;;;;31.58;41.98;99911.00;4446837;32;33498;-84
2023/08/16 11:14:33;;;;;;;3.83;2.17;;;;;;;31.78;41.27;99911.75;4446815;32;33705;-84
2023/08/16 11:17:03;;;;;;;3.70;2.00;;;;;;;31.94;40.99;99908.38;4446585;32;33890;-84
2023/08/16 11:19:33;;;;;;;3.47;1.73;;;;;;;32.02;41.43;99898.59;4443742;32;33092;-84
2023/08/16 11:22:03;;;;;;;4.18;2.05;;;;;;;32.18;40.27;99900.56;4449789;32;33401;-84
2023/08/16 11:24:32;;;;;;;2.53;1.50;;;;;;;32.03;39.20;99904.78;4444242;32;34072;-83
2023/08/16 11:27:05;;;;;;;3.30;1.67;;;;;;;32.26;38.88;99907.88;4443963;32;33639;-83
2023/08/16 11:29:34;;;;;;;3.17;1.45;;;;;;;32.19;39.78;99907.63;4437795;32;33934;-84
2023/08/16 11:32:03;;;;;;;3.62;1.90;;;;;;;32.25;37.24;99909.69;4443953;32;33490;-84
2023/08/16 11:34:32;;;;;;;3.37;1.95;;;;;;;32.26;37.41;99911.41;4442387;32;34754;-84
2023/08/16 11:37:01;;;;;;;3.67;2.10;;;;;;;32.44;38.58;99902.47;4443553;32;33585;-83
2023/08/16 11:39:31;;;;;;;3.83;2.15;;;;;;;32.60;38.71;99904.47;4446040;32;34209;-84
2023/08/16 11:42:01;;;;;;;2.93;1.67;;;;;;;32.58;38.88;99901.09;4443975;32;34573;-84
2023/08/16 11:44:39;;;;;;;3.22;2.00;;;;;;;32.66;38.60;99896.59;4449561;32;33374;-84
2023/08/16 11:47:10;;;;;;;3.33;1.65;;;;;;;32.86;38.02;99883.81;4440357;32;33938;-84